Station GBXA2 - Gambell, AK Image indicating link to RSS feed of recent meteorological observations for station GBXA2


Conditions at GBXA2 as of
(1:13 am AKDT)
0913 GMT on 04/22/2024:
     

Click on the graph icon in the table below to see a time series plot of the last five days of that observation.

5-day plot - Wind Direction Wind Direction (WDIR):NNE ( 30 deg true )
5-day plot - Wind Speed Wind Speed (WSPD): 23 kts
5-day plot - Wind Gust Wind Gust (GST): 28 kts
5-day plot - Air Temperature Air Temperature (ATMP): 12.4 °F
5-day plot - Dew Point Dew Point (DEWP): 9.3 °F
5-day plot - Wind Chill Wind Chill (CHILL): -8.0 °F
5-day plot - Wind Speed at 10 Meters Wind Speed at 10 meters (WSPD10M): 23 kts
5-day plot - Wind Speed at 20 Meters Wind Speed at 20 meters (WSPD20M): 23 kts
5-day plot -  Wind Speed, Wind Gust and Atmospheric Pressure Combined plot of Wind Speed, Gust, and Air Pressure
Previous observations
TIME
(AKDT)
5-day plot - Wind Direction
WDIR
 
5-day plot - Wind Speed
WSPD
kts
5-day plot - Wind Gust
GST
kts
5-day plot - Wave Height
WVHT
ft
5-day plot - Dominant Wave Period
DPD
sec
5-day plot - Average Wave Period
APD
sec
5-day plot - Mean Wave Direction
MWD
 
5-day plot - Atmospheric Pressure
PRES
in
5-day plot - Pressure Tendency
PTDY
in
5-day plot - Air Temperature
ATMP
°F
5-day plot - Water Temperature
WTMP
°F
5-day plot - Dew Point
DEWP
°F
5-day plot - Salinity
SAL
psu
5-day plot - Visibility
VIS
nmi
5-day plot - Tide (above MLLW)
TIDE
ft
2024-04-22 01:03 amNNE 22 29------ 12.2- 9.0---
2024-04-22 12:53 amNNE 21 27------ 12.4- 9.3---
2024-04-22 12:43 amNNE 20 26------ 12.4- 9.3---
2024-04-22 12:33 amNNE 20 28------ 12.4- 9.1---
2024-04-22 12:24 amNNE 22 30------ 12.4- 9.0---
2024-04-22 12:23 amNNE 22 30------ 12.4- 9.0---
2024-04-22 12:03 amNNE 23 36------ 12.4- 9.0---
2024-04-21 11:53 pmNNE 22 29------ 12.4- 9.3---
2024-04-21 11:43 pmNNE 22 29------ 12.4- 9.3---
2024-04-21 11:33 pmNNE 22 30------ 12.4- 9.1---
2024-04-21 11:23 pmNNE 23 29------ 12.4- 9.0---
2024-04-21 11:13 pmNNE 23 30------ 12.4- 9.1---
2024-04-21 11:03 pmNNE 23 31------ 12.4- 9.0---
2024-04-21 10:53 pmNNE 23 28------ 12.4- 9.3---
2024-04-21 10:43 pmNNE 22 28------ 12.4- 9.3---
2024-04-21 10:33 pmNNE 23 30------ 12.4- 9.3---
2024-04-21 10:23 pmNNE 22 30------ 12.4- 9.3---
2024-04-21 10:13 pmNNE 23 31------ 12.4- 9.1---
2024-04-21 10:03 pmNNE 24 33------ 12.4- 9.3---
2024-04-21 09:53 pmNNE 24 32------ 12.2- 9.1---
2024-04-21 09:43 pmNNE 23 29------ 12.4- 9.1---
2024-04-21 09:33 pmNNE 25 31------ 12.2- 9.1---
2024-04-21 09:23 pmNNE 25 34------ 12.2- 9.1---
2024-04-21 09:13 pmNNE 26 32------ 12.2- 9.1---
2024-04-21 09:03 pmNNE 25 35------ 12.2- 9.1---
2024-04-21 08:53 pmNNE 25 33------ 12.0- 9.0---
2024-04-21 08:44 pmNNE 27 35------ 12.2- 8.8---
2024-04-21 08:34 pmNNE 27 35------ 12.0- 8.8---
2024-04-21 08:24 pmNNE 27 35------ 12.0- 8.8---
2024-04-21 08:14 pmNNE 26 33------ 11.8- 8.8---
2024-04-21 08:03 pmNNE 26 34------ 11.8- 8.6---
2024-04-21 07:53 pmNNE 26 35------ 12.0- 8.6---
2024-04-21 07:43 pmNNE 25 33------ 12.0- 8.6---
2024-04-21 07:33 pmNNE 26 33------ 11.8- 8.4---
2024-04-21 07:23 pmNNE 25 32------ 12.0- 8.4---
2024-04-21 07:13 pmNNE 25 33------ 12.0- 8.6---
2024-04-21 06:53 pm NE 28 37------ 11.8- 8.4---
2024-04-21 06:43 pmNNE 29 40------ 11.8- 8.4---
2024-04-21 06:33 pmNNE 31 40------ 12.0- 8.6---
2024-04-21 06:24 pmNNE 32 41------ 11.8- 8.4---
2024-04-21 06:13 pmNNE 30 39------ 11.8- 8.8---
2024-04-21 06:03 pmNNE 31 41------ 11.8- 8.6---
2024-04-21 05:53 pmNNE 32 40------ 11.7- 8.6---
2024-04-21 05:43 pmNNE 31 39------ 11.8- 8.6---
2024-04-21 05:33 pmNNE 32 39------ 11.7- 8.6---
2024-04-21 05:24 pmNNE 31 39------ 11.8- 8.8---
2024-04-21 05:13 pmNNE 32 41------ 11.7- 8.6---
2024-04-21 05:03 pmNNE 32 40------ 11.7- 8.6---
2024-04-21 04:53 pmNNE 31 39------ 11.5- 8.6---
2024-04-21 04:43 pmNNE 31 38------ 11.3- 8.4---
2024-04-21 04:33 pmNNE 30 39------ 11.5- 8.4---
2024-04-21 04:23 pmNNE 31 41------ 11.3- 8.2---
2024-04-21 04:13 pmNNE 30 39------ 11.5- 8.4---
2024-04-21 03:53 pmNNE 32 40------ 11.5- 8.4---
2024-04-21 03:43 pmNNE 31 39------ 11.5- 8.4---
2024-04-21 03:33 pmNNE 32 41------ 11.7- 8.4---
2024-04-21 03:23 pmNNE 33 40------ 11.5- 8.2---
2024-04-21 03:13 pmNNE 33 40------ 11.5- 8.2---
2024-04-21 03:03 pmNNE 33 40------ 11.3- 8.2---
2024-04-21 02:53 pmNNE 33 41------ 11.3- 8.1---
2024-04-21 02:43 pmNNE 34 48------ 11.1- 7.7---
2024-04-21 02:33 pmNNE 34 41------ 11.3- 7.9---
2024-04-21 02:23 pmNNE 33 42------ 11.5- 8.2---
2024-04-21 02:14 pmNNE 34 44------ 11.5- 8.1---
2024-04-21 02:04 pm NE 32 40------ 11.7- 8.4---
2024-04-21 01:53 pmNNE 31 39------ 11.7- 8.4---
2024-04-21 01:43 pm NE 31 41------ 11.7- 8.4---
2024-04-21 01:34 pm NE 33 46------ 11.7- 8.4---
2024-04-21 01:23 pm NE 33 44------ 11.5- 8.2---
2024-04-21 01:03 pm NE 33 41------ 11.5- 8.4---
2024-04-21 12:53 pm NE 32 50------ 11.5- 8.6---
2024-04-21 12:43 pm NE 36 46------ 11.5- 8.4---
2024-04-21 12:33 pm NE 33 43------ 11.7- 8.8---
2024-04-21 12:24 pm NE 35 45------ 11.5- 8.4---
2024-04-21 12:03 pm NE 32 42------ 12.0- 9.1---
2024-04-21 11:53 am NE 32 41------ 11.8- 9.0---
2024-04-21 11:23 amNNE 32 39------ 11.8- 9.0---
2024-04-21 11:14 amNNE 31 40------ 12.0- 9.1---
2024-04-21 11:03 amNNE 32 40------ 12.2- 9.3---
2024-04-21 10:53 amNNE 31 38------ 12.2- 9.3---
2024-04-21 10:43 amNNE 32 41------ 12.2- 9.5---
2024-04-21 10:33 amNNE 31 40------ 12.2- 9.5---
2024-04-21 10:23 amNNE 32 39------ 12.4- 9.7---
2024-04-21 10:13 amNNE 32 41------ 12.4- 9.7---
2024-04-21 10:03 amNNE 30 38------ 12.6- 9.9---
2024-04-21 09:53 amNNE 32 40------ 12.6- 9.7---
2024-04-21 09:44 amNNE 33 41------ 12.7- 9.9---
2024-04-21 09:33 amNNE 34 43------ 12.7- 9.9---
2024-04-21 09:13 amNNE 34 42------ 13.1- 10.2---
2024-04-21 09:03 am NE 33 43------ 13.5- 10.8---
2024-04-21 08:53 amNNE 32 40------ 13.6- 10.9---
2024-04-21 08:44 am NE 34 43------ 13.8- 10.9---
2024-04-21 08:34 am NE 35 44------ 13.8- 10.9---
2024-04-21 08:24 am NE 33 41------ 13.8- 10.9---
2024-04-21 08:04 am NE 34 41------ 14.0- 11.1---
2024-04-21 07:53 am NE 34 46------ 14.2- 11.5---
2024-04-21 07:43 am NE 34 42------ 14.2- 11.5---
2024-04-21 07:33 am NE 36 46------ 14.2- 11.5---
2024-04-21 07:23 am NE 35 46------ 14.4- 11.7---
2024-04-21 07:13 am NE 34 42------ 14.5- 11.8---
2024-04-21 07:03 am NE 36 44------ 14.5- 11.8---
2024-04-21 06:53 am NE 34 44------ 14.7- 12.2---
2024-04-21 06:43 am NE 35 44------ 14.7- 12.4---
2024-04-21 06:33 am NE 34 42------ 14.7- 12.2---
2024-04-21 06:23 am NE 35 42------ 14.9- 12.2---
2024-04-21 06:13 am NE 35 47------ 14.9- 12.4---
2024-04-21 06:03 am NE 32 41------ 15.1- 12.7---
2024-04-21 05:53 am NE 33 43------ 15.3- 12.9---
2024-04-21 05:43 am NE 32 40------ 15.4- 13.1---
2024-04-21 05:33 am NE 32 40------ 15.4- 13.1---
2024-04-21 05:24 am NE 33 43------ 15.6- 13.3---
2024-04-21 05:13 am NE 32 47------ 15.8- 13.5---
2024-04-21 05:03 am NE 34 43------ 15.8- 13.5---
2024-04-21 04:54 am NE 32 38------ 16.0- 13.6---
2024-04-21 04:43 am NE 32 39------ 16.0- 13.6---
2024-04-21 04:33 am NE 32 40------ 16.2- 13.8---
2024-04-21 04:13 am NE 33 41------ 16.2- 13.8---
2024-04-21 03:53 am NE 35 45------ 16.0- 13.6---
2024-04-21 03:43 am NE 35 42------ 16.0- 13.6---
2024-04-21 03:33 am NE 32 41------ 16.2- 13.8---
2024-04-21 03:23 am NE 35 43------ 16.3- 14.0---
2024-04-21 03:13 am NE 33 46------ 16.7- 14.4---
2024-04-21 03:03 am NE 34 44------ 16.7- 14.4---
2024-04-21 02:53 am NE 36 46------ 16.7- 14.4---
2024-04-21 02:43 am NE 32 46------ 17.2- 14.7---
2024-04-21 02:33 am NE 31 40------ 17.6- 15.4---
2024-04-21 02:23 am NE 32 44------ 17.6- 15.1---
2024-04-21 02:14 amNNE 32 44------ 18.0- 15.8---
2024-04-21 01:53 am NE 34 42------ 18.1- 15.6---
2024-04-21 01:43 am NE 31 41------ 18.1- 15.8---
2024-04-21 01:34 am NE 31 41------ 18.1- 15.8---
2024-04-21 01:23 am NE 32 39------ 18.1- 15.6---
2024-04-21 01:13 am NE 30 40------ 18.1- 15.6---
2024-04-21 01:03 am NE 31 42------ 18.1- 15.6---
2024-04-21 12:53 am NE 33 43------ 18.0- 15.4---